Time;durP1;ratioP1;P1;durP2;ratioP2;P2;SDS_P1;SDS_P2;PMS_P1;PMS_P2;Temp;Humidity;BMP_temperature;BMP_pressure;BME280_temperature;BME280_humidity;BME280_pressure;Samples;Min_cycle;Max_cycle;Signal;HPM_P1;HPM_P2
2022/08/20 00:00:21;;;;;;;3.70;1.33;;;20.50;56.00;;;;;;5002942;28;20037;-86
2022/08/20 00:02:53;;;;;;;3.83;1.50;;;20.50;56.10;;;;;;5003477;28;20493;-85
2022/08/20 00:05:47;;;;;;;2.70;0.85;;;20.50;56.20;;;;;;5004554;28;20263;-86
2022/08/20 00:08:14;;;;;;;3.30;1.42;;;20.50;56.30;;;;;;5003290;28;20038;-85
2022/08/20 00:10:43;;;;;;;3.20;0.90;;;20.50;56.30;;;;;;5006882;28;20026;-85
2022/08/20 00:13:13;;;;;;;3.10;1.13;;;20.50;56.40;;;;;;4989186;28;20022;-84
2022/08/20 00:15:40;;;;;;;3.72;0.98;;;20.50;56.50;;;;;;5008758;28;20022;-84
2022/08/20 00:18:06;;;;;;;3.35;1.17;;;20.50;56.60;;;;;;5004913;28;20030;-85
2022/08/20 00:20:37;;;;;;;2.63;1.10;;;20.50;56.60;;;;;;5007337;28;20045;-85
2022/08/20 00:23:05;;;;;;;5.88;1.45;;;20.50;56.70;;;;;;5022912;28;20018;-85
2022/08/20 00:25:31;;;;;;;2.38;1.00;;;20.50;56.80;;;;;;4990317;28;20033;-85
2022/08/20 00:28:02;;;;;;;3.88;1.33;;;20.40;56.80;;;;;;5008405;28;20021;-85
2022/08/20 00:30:30;;;;;;;3.92;1.45;;;20.40;56.80;;;;;;4987132;28;20044;-85
2022/08/20 00:32:59;;;;;;;4.28;1.10;;;20.40;56.90;;;;;;5008083;28;20026;-86
2022/08/20 00:35:29;;;;;;;3.33;1.30;;;20.40;57.10;;;;;;5005992;28;20030;-85
2022/08/20 00:37:55;;;;;;;5.82;1.60;;;20.40;57.10;;;;;;5006373;28;20067;-85
2022/08/20 00:40:28;;;;;;;5.00;1.65;;;20.30;57.10;;;;;;5006382;28;20045;-85
2022/08/20 00:42:59;;;;;;;3.60;1.58;;;20.40;57.40;;;;;;5005490;28;20056;-85
2022/08/20 00:45:30;;;;;;;4.65;1.20;;;20.30;57.30;;;;;;5006219;28;20041;-82
2022/08/20 00:47:57;;;;;;;5.28;1.30;;;20.30;57.40;;;;;;5027540;28;20030;-84
2022/08/20 00:50:33;;;;;;;6.63;1.63;;;20.30;57.50;;;;;;5028391;28;20037;-85
2022/08/20 00:53:01;;;;;;;3.60;1.45;;;20.20;57.50;;;;;;5028181;28;20057;-84
2022/08/20 00:55:28;;;;;;;4.72;1.85;;;20.20;57.50;;;;;;5027825;28;20042;-85
2022/08/20 00:57:58;;;;;;;3.30;1.50;;;20.20;57.60;;;;;;5006177;28;20186;-85
2022/08/20 01:00:33;;;;;;;3.83;1.38;;;20.20;57.70;;;;;;5005571;28;20049;-85
2022/08/20 01:03:00;;;;;;;4.93;1.60;;;20.10;57.60;;;;;;5003791;28;20022;-85
2022/08/20 01:05:27;;;;;;;8.05;1.88;;;20.10;57.60;;;;;;5006057;28;20026;-85
2022/08/20 01:07:54;;;;;;;4.13;1.40;;;20.00;57.60;;;;;;4987310;28;20028;-85
2022/08/20 01:10:25;;;;;;;2.72;1.30;;;20.10;57.90;;;;;;4989113;28;20097;-87
2022/08/20 01:12:52;;;;;;;4.68;1.40;;;20.10;58.00;;;;;;4988434;28;20030;-86
2022/08/20 01:15:22;;;;;;;3.80;1.20;;;20.00;57.90;;;;;;4989216;28;20481;-84
2022/08/20 01:17:52;;;;;;;4.05;1.35;;;20.00;58.00;;;;;;4986703;28;20018;-85
2022/08/20 01:20:32;;;;;;;3.80;1.42;;;20.00;58.10;;;;;;4988619;28;20038;-86
2022/08/20 01:23:26;;;;;;;1.90;1.00;;;19.90;58.10;;;;;;5004772;28;20036;-86
2022/08/20 01:26:04;;;;;;;3.97;1.15;;;19.90;58.00;;;;;;5004614;28;20034;-85
2022/08/20 01:28:43;;;;;;;4.95;1.92;;;19.80;57.90;;;;;;5004546;28;20199;-84
2022/08/20 01:31:16;;;;;;;4.35;1.38;;;19.90;58.20;;;;;;4988094;28;20045;-84
2022/08/20 01:33:43;;;;;;;4.15;1.67;;;19.80;58.10;;;;;;5005231;28;20029;-84
2022/08/20 01:36:11;;;;;;;3.08;1.05;;;19.80;58.20;;;;;;4971984;28;20029;-85
2022/08/20 01:38:38;;;;;;;2.88;0.90;;;19.70;58.00;;;;;;5005224;28;20119;-84
2022/08/20 01:41:22;;;;;;;7.22;1.95;;;19.70;58.10;;;;;;4988630;28;20099;-85
2022/08/20 01:43:50;;;;;;;4.00;1.05;;;19.70;58.30;;;;;;5021007;28;20076;-84
2022/08/20 01:46:17;;;;;;;3.38;0.80;;;19.70;58.30;;;;;;4992026;28;20032;-82
2022/08/20 01:48:43;;;;;;;3.72;1.20;;;19.70;58.40;;;;;;5004332;28;20129;-85
2022/08/20 01:51:09;;;;;;;3.17;1.35;;;19.60;58.30;;;;;;5006066;28;20030;-85
2022/08/20 01:53:41;;;;;;;2.97;1.00;;;19.60;58.50;;;;;;5005059;28;20032;-84
2022/08/20 01:56:12;;;;;;;4.57;1.02;;;19.60;58.50;;;;;;5007575;28;20392;-84
2022/08/20 01:58:41;;;;;;;3.28;1.58;;;19.60;58.50;;;;;;5024156;28;20095;-85
2022/08/20 02:01:19;;;;;;;2.90;1.55;;;19.50;58.40;;;;;;5009403;28;20099;-85
2022/08/20 02:03:45;;;;;;;2.88;1.13;;;19.50;58.60;;;;;;5009535;28;20036;-84
2022/08/20 02:06:11;;;;;;;3.38;1.02;;;19.50;58.50;;;;;;5015423;28;20030;-84
2022/08/20 02:08:37;;;;;;;3.35;1.40;;;19.40;58.50;;;;;;5014855;28;20040;-85
2022/08/20 02:11:03;;;;;;;2.80;1.35;;;19.40;58.50;;;;;;5000079;28;20025;-86
2022/08/20 02:13:29;;;;;;;3.80;1.10;;;19.40;58.70;;;;;;5026878;28;20485;-85
2022/08/20 02:15:55;;;;;;;5.20;1.10;;;19.40;58.70;;;;;;5026135;28;20048;-85
2022/08/20 02:18:21;;;;;;;3.92;1.20;;;19.40;58.80;;;;;;5025737;28;20484;-84
2022/08/20 02:20:48;;;;;;;2.25;0.90;;;19.30;58.70;;;;;;4999660;28;20029;-84
2022/08/20 02:23:15;;;;;;;4.55;1.35;;;19.30;58.80;;;;;;5014605;28;20026;-85
2022/08/20 02:25:42;;;;;;;4.07;1.17;;;19.30;58.80;;;;;;5009436;28;20044;-87
2022/08/20 02:28:11;;;;;;;4.65;1.40;;;19.30;58.90;;;;;;5008856;28;20030;-88
2022/08/20 02:30:42;;;;;;;3.65;1.00;;;19.30;59.00;;;;;;4993134;28;20037;-88
2022/08/20 02:33:11;;;;;;;5.97;1.52;;;19.20;59.00;;;;;;4993935;28;20035;-87
2022/08/20 02:35:39;;;;;;;3.70;0.95;;;19.20;59.00;;;;;;5014766;28;20039;-86
2022/08/20 02:38:06;;;;;;;2.80;1.10;;;19.20;59.70;;;;;;5025994;28;20036;-85
2022/08/20 02:40:32;;;;;;;3.63;0.80;;;19.10;59.00;;;;;;5016454;28;20061;-85
2022/08/20 02:43:00;;;;;;;2.67;1.13;;;19.10;59.10;;;;;;5026338;28;20017;-84
2022/08/20 02:45:26;;;;;;;2.15;1.02;;;19.10;59.20;;;;;;5034293;28;20065;-83
2022/08/20 02:47:52;;;;;;;6.30;1.75;;;19.10;59.30;;;;;;4993186;28;20029;-85
2022/08/20 02:50:22;;;;;;;3.65;1.02;;;19.10;59.30;;;;;;4994993;28;20032;-85
2022/08/20 02:52:49;;;;;;;3.05;1.45;;;19.10;59.40;;;;;;4993267;28;20034;-85
2022/08/20 02:55:15;;;;;;;4.05;1.60;;;19.10;59.40;;;;;;5037689;28;20022;-83
2022/08/20 02:57:42;;;;;;;5.35;1.65;;;19.10;59.50;;;;;;5027202;28;20041;-85
2022/08/20 03:00:15;;;;;;;3.50;1.13;;;19.10;59.50;;;;;;4993860;28;20594;-84
2022/08/20 03:02:41;;;;;;;4.50;1.40;;;19.10;59.60;;;;;;5018885;28;20123;-84
2022/08/20 03:05:09;;;;;;;4.68;1.58;;;19.10;59.60;;;;;;5018627;28;20033;-84
2022/08/20 03:07:45;;;;;;;4.25;1.20;;;19.10;59.50;;;;;;5029882;28;20063;-84
2022/08/20 03:10:13;;;;;;;2.67;1.05;;;19.10;59.70;;;;;;5029501;28;20098;-86
2022/08/20 03:12:40;;;;;;;4.57;1.25;;;19.10;59.60;;;;;;4987757;28;20032;-87
2022/08/20 03:15:08;;;;;;;3.75;0.85;;;19.10;59.60;;;;;;5014308;28;20029;-87
2022/08/20 03:17:34;;;;;;;2.50;1.00;;;19.10;59.70;;;;;;5016225;28;20322;-86
2022/08/20 03:20:01;;;;;;;5.07;1.45;;;19.10;59.70;;;;;;5004342;28;20239;-85
2022/08/20 03:22:28;;;;;;;3.42;1.00;;;19.10;59.80;;;;;;4979723;28;20028;-85
2022/08/20 03:24:54;;;;;;;3.45;0.82;;;19.10;59.80;;;;;;5014531;28;20033;-84
2022/08/20 03:27:20;;;;;;;3.72;1.20;;;19.10;59.80;;;;;;5030840;28;20030;-85
2022/08/20 03:29:46;;;;;;;6.35;1.55;;;19.10;59.90;;;;;;5017174;28;20037;-84
2022/08/20 03:32:13;;;;;;;5.40;1.02;;;19.10;59.90;;;;;;5026710;28;20051;-86
2022/08/20 03:34:38;;;;;;;3.30;1.00;;;19.10;59.90;;;;;;5026486;28;20029;-85
2022/08/20 03:37:04;;;;;;;3.38;1.55;;;19.10;60.00;;;;;;4999813;28;20160;-85
2022/08/20 03:39:30;;;;;;;5.60;2.03;;;19.10;60.00;;;;;;5011558;28;20480;-83
2022/08/20 03:41:56;;;;;;;4.13;1.63;;;19.10;60.10;;;;;;5012868;28;20060;-84
2022/08/20 03:44:22;;;;;;;2.92;0.80;;;19.10;60.10;;;;;;5021443;28;20033;-84
2022/08/20 03:46:48;;;;;;;3.65;1.13;;;19.10;60.10;;;;;;5028540;28;20021;-84
2022/08/20 03:49:15;;;;;;;4.75;1.75;;;19.00;60.00;;;;;;5015896;28;20105;-84
2022/08/20 03:51:41;;;;;;;3.92;1.17;;;19.00;60.10;;;;;;5013382;28;20028;-83
2022/08/20 03:54:07;;;;;;;5.88;1.23;;;19.00;60.10;;;;;;5020218;28;20099;-84
2022/08/20 03:56:33;;;;;;;3.63;1.00;;;19.00;60.20;;;;;;5015057;28;20044;-84
2022/08/20 03:58:59;;;;;;;3.97;1.10;;;19.00;60.80;;;;;;5029183;28;20520;-84
2022/08/20 04:01:25;;;;;;;3.50;1.20;;;19.00;60.30;;;;;;5020179;28;20034;-85
2022/08/20 04:03:51;;;;;;;2.55;1.20;;;19.00;60.30;;;;;;5015586;28;20024;-84
2022/08/20 04:06:17;;;;;;;4.35;1.20;;;19.00;60.30;;;;;;5029215;28;20229;-85
2022/08/20 04:08:43;;;;;;;4.80;1.63;;;19.00;60.30;;;;;;5015580;28;20047;-84
2022/08/20 04:11:09;;;;;;;5.82;1.23;;;19.00;60.40;;;;;;5020980;28;20036;-86
2022/08/20 04:13:36;;;;;;;2.92;1.00;;;19.00;60.40;;;;;;5000694;28;20026;-86
2022/08/20 04:16:08;;;;;;;4.03;1.48;;;19.00;60.50;;;;;;4983846;28;20124;-84
2022/08/20 04:18:35;;;;;;;3.00;1.60;;;18.90;60.30;;;;;;4994251;28;20018;-84
2022/08/20 04:21:03;;;;;;;4.13;1.65;;;18.90;60.30;;;;;;5003725;28;20068;-84
2022/08/20 04:23:30;;;;;;;4.45;1.67;;;18.90;60.40;;;;;;5001138;28;20743;-82
2022/08/20 04:25:56;;;;;;;2.22;0.90;;;18.90;60.40;;;;;;5004218;28;20040;-84
2022/08/20 04:28:26;;;;;;;3.88;1.30;;;18.90;60.50;;;;;;4990694;28;20040;-86
2022/08/20 04:30:53;;;;;;;5.85;1.50;;;18.90;60.50;;;;;;5015614;28;20098;-84
2022/08/20 04:33:21;;;;;;;4.35;1.50;;;18.90;60.50;;;;;;5026452;28;20608;-84
2022/08/20 04:35:47;;;;;;;5.65;1.48;;;18.80;60.50;;;;;;5029497;28;20031;-86
2022/08/20 04:38:15;;;;;;;3.75;1.75;;;18.80;60.60;;;;;;5017311;28;20037;-85
2022/08/20 04:40:56;;;;;;;3.67;1.08;;;18.80;60.60;;;;;;5028502;28;20102;-87
2022/08/20 04:43:26;;;;;;;2.85;1.00;;;18.80;60.70;;;;;;4992629;28;20022;-88
2022/08/20 04:45:56;;;;;;;3.05;1.38;;;18.70;60.60;;;;;;5003501;28;20078;-85
2022/08/20 04:48:23;;;;;;;3.88;1.25;;;18.80;60.80;;;;;;5038079;28;20036;-88
2022/08/20 04:50:51;;;;;;;3.28;1.15;;;18.80;60.90;;;;;;5040025;28;20116;-87
2022/08/20 04:53:20;;;;;;;4.93;1.40;;;18.70;60.70;;;;;;5049144;28;20079;-85
2022/08/20 04:55:47;;;;;;;5.03;1.60;;;18.70;60.80;;;;;;5020659;28;20020;-83
2022/08/20 04:58:26;;;;;;;3.13;0.90;;;18.70;60.80;;;;;;5053970;28;20147;-84
2022/08/20 05:01:07;;;;;;;4.28;1.17;;;18.70;61.00;;;;;;5030736;28;20184;-84
2022/08/20 05:03:36;;;;;;;3.63;1.20;;;18.70;61.10;;;;;;5028066;28;20476;-85
2022/08/20 05:06:04;;;;;;;4.75;1.50;;;18.70;60.90;;;;;;5015548;28;20427;-85
2022/08/20 05:08:31;;;;;;;4.50;1.25;;;18.70;61.00;;;;;;5001643;28;20043;-85
2022/08/20 05:10:57;;;;;;;4.25;1.80;;;18.70;61.00;;;;;;5018227;28;20025;-84
2022/08/20 05:13:24;;;;;;;3.33;1.80;;;18.70;61.00;;;;;;5008303;28;20034;-83
2022/08/20 05:15:51;;;;;;;5.18;2.20;;;18.70;61.10;;;;;;5014067;28;20036;-90
2022/08/20 05:18:20;;;;;;;3.58;1.20;;;18.70;61.10;;;;;;5001211;28;20029;-94
2022/08/20 05:20:47;;;;;;;9.70;3.45;;;18.70;61.10;;;;;;5020158;28;20099;-89
2022/08/20 05:23:15;;;;;;;3.47;1.00;;;18.60;61.00;;;;;;4993198;28;20025;-92
2022/08/20 05:25:43;;;;;;;6.32;1.83;;;18.60;61.00;;;;;;5029548;28;20035;-88
2022/08/20 05:28:15;;;;;;;7.00;1.60;;;18.60;61.20;;;;;;5027021;28;20022;-91
2022/08/20 05:30:44;;;;;;;5.63;1.87;;;18.60;61.50;;;;;;5012818;28;20037;-92
2022/08/20 05:33:12;;;;;;;6.15;1.75;;;18.50;61.40;;;;;;5025594;28;20780;-85
2022/08/20 05:35:39;;;;;;;5.80;1.92;;;18.50;61.60;;;;;;4976543;28;20032;-92
2022/08/20 05:38:10;;;;;;;6.55;1.73;;;18.50;61.90;;;;;;5027538;28;20029;-88
2022/08/20 05:40:37;;;;;;;4.65;1.98;;;18.50;62.20;;;;;;5026153;28;20082;-87
2022/08/20 05:43:03;;;;;;;8.85;2.53;;;18.50;62.50;;;;;;5000344;28;20243;-83
2022/08/20 05:45:36;;;;;;;4.97;1.25;;;18.50;63.10;;;;;;5002981;28;20033;-80
2022/08/20 05:48:12;;;;;;;6.82;1.45;;;18.50;63.40;;;;;;4989989;28;20021;-83
2022/08/20 05:50:41;;;;;;;5.82;1.35;;;18.50;63.60;;;;;;5026637;28;20480;-85
2022/08/20 05:53:07;;;;;;;6.32;2.00;;;18.50;63.50;;;;;;5016527;28;20029;-82
2022/08/20 05:55:36;;;;;;;7.38;3.00;;;18.60;63.70;;;;;;4992542;28;20022;-83
2022/08/20 05:58:05;;;;;;;7.95;1.92;;;18.60;63.60;;;;;;4972584;28;20058;-83
2022/08/20 06:00:32;;;;;;;6.78;1.83;;;18.70;63.70;;;;;;4991784;28;20041;-92
2022/08/20 06:05:48;;;;;;;9.20;2.65;;;18.80;63.60;;;;;;4919780;28;20035;-85
2022/08/20 06:08:15;;;;;;;7.60;1.90;;;18.90;63.50;;;;;;5002876;28;20539;-85
2022/08/20 06:10:42;;;;;;;6.07;1.95;;;19.00;63.50;;;;;;4994169;28;20025;-86
2022/08/20 06:13:09;;;;;;;5.05;1.63;;;19.10;63.50;;;;;;5024190;28;20428;-85
2022/08/20 06:15:35;;;;;;;5.50;1.40;;;19.20;63.50;;;;;;4978227;28;20154;-86
2022/08/20 06:18:06;;;;;;;6.00;1.92;;;19.30;63.50;;;;;;4996950;28;20037;-83
2022/08/20 06:20:37;;;;;;;6.50;2.55;;;19.50;63.50;;;;;;4996901;28;20038;-91
2022/08/20 06:23:04;;;;;;;4.57;1.20;;;19.80;63.70;;;;;;4997926;28;20044;-91
2022/08/20 06:25:30;;;;;;;7.78;2.28;;;20.00;63.50;;;;;;5027526;28;20039;-89
2022/08/20 06:27:56;;;;;;;3.65;1.38;;;20.20;63.40;;;;;;5014424;28;20225;-92
2022/08/20 06:30:24;;;;;;;7.05;1.77;;;20.50;63.30;;;;;;4997526;28;20046;-93
2022/08/20 06:32:50;;;;;;;5.75;1.85;;;20.80;63.20;;;;;;5006923;28;20052;-83
2022/08/20 06:35:16;;;;;;;5.88;1.75;;;21.10;63.10;;;;;;5025904;28;20018;-83
2022/08/20 06:37:42;;;;;;;5.25;1.85;;;21.30;62.80;;;;;;5036649;28;20034;-94
2022/08/20 06:40:12;;;;;;;3.58;1.60;;;21.60;62.60;;;;;;5000358;28;20045;-89
2022/08/20 06:42:42;;;;;;;6.68;1.67;;;22.00;62.70;;;;;;5011769;28;20018;-88
2022/08/20 06:45:10;;;;;;;5.30;2.08;;;22.30;62.50;;;;;;5018650;28;20466;-89
2022/08/20 06:47:39;;;;;;;3.30;1.40;;;22.60;62.30;;;;;;5027208;28;20040;-88
2022/08/20 06:50:23;;;;;;;5.22;2.03;;;22.90;62.10;;;;;;5007415;28;20281;-88
2022/08/20 06:52:49;;;;;;;4.43;1.50;;;23.40;62.50;;;;;;5029394;28;20092;-87
2022/08/20 06:55:16;;;;;;;7.75;1.77;;;23.70;61.60;;;;;;4999045;28;20041;-88
2022/08/20 06:57:42;;;;;;;5.18;1.38;;;24.00;61.40;;;;;;5011496;28;20051;-86
2022/08/20 07:00:15;;;;;;;4.57;1.90;;;24.30;61.20;;;;;;5024951;28;20761;-84
2022/08/20 07:02:41;;;;;;;5.82;1.92;;;24.50;60.90;;;;;;5010981;28;20038;-85
2022/08/20 07:05:08;;;;;;;6.43;1.70;;;24.80;60.90;;;;;;5024821;28;20047;-83
2022/08/20 07:07:34;;;;;;;6.03;2.17;;;25.10;60.70;;;;;;5014251;28;20030;-83
2022/08/20 07:10:01;;;;;;;4.68;1.40;;;25.30;60.40;;;;;;4990237;28;20040;-83
2022/08/20 07:12:28;;;;;;;4.32;1.40;;;25.60;59.80;;;;;;4988848;28;20033;-84
2022/08/20 07:14:54;;;;;;;4.43;1.40;;;25.90;59.20;;;;;;5025985;28;20545;-83
2022/08/20 07:17:20;;;;;;;5.45;1.73;;;26.20;58.70;;;;;;5002547;28;20037;-88
2022/08/20 07:19:46;;;;;;;4.93;1.17;;;26.50;58.10;;;;;;5027463;28;20037;-78
2022/08/20 07:22:13;;;;;;;3.35;1.63;;;26.80;57.40;;;;;;5027442;28;20029;-83
2022/08/20 07:24:39;;;;;;;5.75;1.98;;;27.00;56.90;;;;;;5028519;28;20720;-80
2022/08/20 07:27:05;;;;;;;3.75;1.50;;;27.20;56.40;;;;;;5029151;28;20022;-80
2022/08/20 07:32:35;;;;;;;3.50;1.50;;;27.50;55.60;;;;;;5013942;28;20439;-82
2022/08/20 07:35:10;;;;;;;3.83;1.60;;;27.60;55.50;;;;;;5028087;28;20423;-81
2022/08/20 07:37:38;;;;;;;3.08;1.52;;;27.60;55.30;;;;;;4990457;28;20109;-82
2022/08/20 07:40:06;;;;;;;6.25;1.30;;;27.50;55.40;;;;;;5015381;28;20177;-82
2022/08/20 07:42:32;;;;;;;3.30;1.23;;;27.50;55.40;;;;;;5027582;28;20045;-80
2022/08/20 07:44:57;;;;;;;4.60;1.40;;;27.50;55.50;;;;;;5015569;28;20342;-81
2022/08/20 07:47:24;;;;;;;3.03;1.50;;;27.50;55.40;;;;;;5014655;28;20488;-81
2022/08/20 07:49:50;;;;;;;3.60;1.40;;;27.50;55.20;;;;;;5013342;28;20037;-80
2022/08/20 07:52:15;;;;;;;4.03;1.23;;;27.60;55.00;;;;;;5028422;28;20431;-82
2022/08/20 07:54:43;;;;;;;3.67;1.20;;;27.60;54.90;;;;;;5026895;28;20448;-86
2022/08/20 07:57:10;;;;;;;4.13;1.90;;;27.40;54.80;;;;;;5017771;28;20033;-80
2022/08/20 07:59:37;;;;;;;4.25;1.58;;;27.30;55.00;;;;;;5017197;28;20079;-81
2022/08/20 08:02:04;;;;;;;3.80;1.60;;;27.10;55.10;;;;;;5025983;28;20113;-81
2022/08/20 08:04:30;;;;;;;3.88;1.80;;;27.00;55.20;;;;;;5009607;28;20060;-82
2022/08/20 08:06:58;;;;;;;5.15;1.90;;;26.90;55.40;;;;;;5016611;28;20052;-83
2022/08/20 08:09:26;;;;;;;3.63;1.65;;;26.80;55.50;;;;;;4998895;28;20041;-82
2022/08/20 08:11:56;;;;;;;5.68;1.60;;;26.70;55.60;;;;;;4975794;28;20140;-82
2022/08/20 08:14:25;;;;;;;3.72;1.27;;;26.60;55.70;;;;;;5011462;28;20051;-82
2022/08/20 08:16:58;;;;;;;7.68;2.13;;;26.50;55.80;;;;;;4992134;28;20026;-82
2022/08/20 08:19:28;;;;;;;4.63;1.50;;;26.50;55.90;;;;;;5013091;28;20037;-82
2022/08/20 08:21:56;;;;;;;4.68;1.70;;;26.40;55.90;;;;;;4994274;28;20022;-82
2022/08/20 08:24:22;;;;;;;3.58;1.80;;;26.30;56.00;;;;;;5000721;28;20041;-82
2022/08/20 08:26:51;;;;;;;4.47;1.38;;;26.30;56.10;;;;;;5002451;28;20107;-84
2022/08/20 08:29:17;;;;;;;5.53;1.20;;;26.30;56.20;;;;;;5026280;28;20037;-82
2022/08/20 08:31:43;;;;;;;3.28;1.40;;;26.20;56.20;;;;;;5004109;28;20037;-83
2022/08/20 08:34:10;;;;;;;5.40;1.63;;;26.20;56.30;;;;;;5016505;28;20079;-82
2022/08/20 08:36:38;;;;;;;5.45;1.92;;;26.20;56.30;;;;;;5014523;28;20030;-81
2022/08/20 08:39:04;;;;;;;6.63;2.45;;;26.20;56.30;;;;;;5012301;28;20033;-82
2022/08/20 08:41:48;;;;;;;4.18;1.30;;;26.20;56.20;;;;;;5026798;28;20041;-83
2022/08/20 08:44:22;;;;;;;5.07;1.33;;;26.30;56.10;;;;;;5031358;28;20047;-82
2022/08/20 08:46:51;;;;;;;3.72;1.25;;;26.40;56.10;;;;;;4977648;28;20053;-81
2022/08/20 08:49:23;;;;;;;3.97;1.42;;;26.50;55.90;;;;;;5032682;28;20032;-83
2022/08/20 08:51:55;;;;;;;6.23;1.67;;;26.80;55.80;;;;;;5031782;28;20025;-82
2022/08/20 08:54:24;;;;;;;5.25;1.23;;;26.90;55.40;;;;;;5027242;28;20021;-82
2022/08/20 08:56:51;;;;;;;4.85;1.65;;;27.10;55.20;;;;;;4989492;28;1113363;-83
2022/08/20 08:59:19;;;;;;;5.05;1.50;;;27.20;55.00;;;;;;5034096;28;20338;-83
2022/08/20 09:01:52;;;;;;;4.85;1.40;;;27.30;54.90;;;;;;5029334;28;20029;-83
2022/08/20 09:04:20;;;;;;;3.85;1.52;;;27.30;54.80;;;;;;5012401;28;20041;-82
2022/08/20 09:06:48;;;;;;;4.03;1.23;;;27.40;54.70;;;;;;5029409;28;20340;-83
2022/08/20 09:09:23;;;;;;;4.50;1.42;;;27.50;54.60;;;;;;5030031;28;20029;-82
2022/08/20 09:11:52;;;;;;;5.03;1.48;;;27.60;54.30;;;;;;5003138;28;20041;-81
2022/08/20 09:14:18;;;;;;;3.00;1.13;;;27.70;54.30;;;;;;5029718;28;20467;-83
2022/08/20 09:16:45;;;;;;;4.90;1.60;;;27.80;54.20;;;;;;5006480;28;20128;-82
2022/08/20 09:19:11;;;;;;;3.85;1.60;;;28.00;54.00;;;;;;5029867;28;20198;-86
2022/08/20 09:21:37;;;;;;;5.78;1.40;;;28.00;53.70;;;;;;5026231;28;20041;-82
2022/08/20 09:24:03;;;;;;;7.70;2.50;;;28.10;53.60;;;;;;5031233;28;20029;-82
2022/08/20 09:26:30;;;;;;;4.57;1.60;;;28.10;53.50;;;;;;5030294;28;20034;-83
2022/08/20 09:28:57;;;;;;;3.13;1.40;;;28.10;53.30;;;;;;5014103;28;20111;-83
2022/08/20 09:31:23;;;;;;;5.30;1.83;;;28.10;53.30;;;;;;4979877;28;20029;-83
2022/08/20 09:33:50;;;;;;;6.70;1.70;;;28.20;53.20;;;;;;5014378;28;20071;-83
2022/08/20 09:36:16;;;;;;;4.32;2.00;;;28.20;53.10;;;;;;5026762;28;20539;-83
2022/08/20 09:38:42;;;;;;;3.70;1.80;;;28.20;53.00;;;;;;5025639;28;20073;-83
2022/08/20 09:41:08;;;;;;;7.10;2.28;;;28.30;52.80;;;;;;5026014;28;20099;-82
2022/08/20 09:43:34;;;;;;;6.25;2.10;;;28.40;52.70;;;;;;5000456;28;20384;-83
2022/08/20 09:46:00;;;;;;;2.83;1.38;;;28.60;52.50;;;;;;5015329;28;20029;-83
2022/08/20 09:48:26;;;;;;;4.88;1.42;;;28.70;52.30;;;;;;5025341;28;20048;-81
2022/08/20 09:50:52;;;;;;;2.92;1.23;;;28.80;52.00;;;;;;5019965;28;20033;-84
2022/08/20 09:53:19;;;;;;;4.38;1.77;;;29.00;51.90;;;;;;5025764;28;20022;-83
2022/08/20 09:55:52;;;;;;;5.15;1.80;;;29.10;51.80;;;;;;5021775;28;20064;-83
2022/08/20 09:58:20;;;;;;;4.22;2.05;;;29.20;51.60;;;;;;5025150;28;20049;-82
2022/08/20 10:00:46;;;;;;;2.80;1.17;;;29.30;51.50;;;;;;5032492;28;20067;-82
2022/08/20 10:03:12;;;;;;;7.57;1.73;;;29.50;51.30;;;;;;5024449;28;20093;-82
2022/08/20 10:05:38;;;;;;;4.55;1.73;;;29.60;51.30;;;;;;5025262;28;20480;-82
2022/08/20 10:08:09;;;;;;;3.95;1.60;;;29.70;50.80;;;;;;5015285;28;20033;-83
2022/08/20 10:10:36;;;;;;;5.22;1.73;;;29.80;50.70;;;;;;5014309;28;20088;-82
2022/08/20 10:13:02;;;;;;;3.20;1.50;;;29.80;50.60;;;;;;5011600;28;20063;-83
2022/08/20 10:15:29;;;;;;;3.67;1.50;;;29.80;50.60;;;;;;5019175;28;20508;-84
2022/08/20 10:17:58;;;;;;;3.53;1.58;;;29.80;50.50;;;;;;4994310;28;20077;-81
2022/08/20 10:20:24;;;;;;;6.78;1.92;;;29.80;50.30;;;;;;5024256;28;20044;-81
2022/08/20 10:22:50;;;;;;;7.53;2.45;;;29.90;50.30;;;;;;4994676;28;20078;-80
2022/08/20 10:25:17;;;;;;;4.85;1.80;;;29.90;50.10;;;;;;5026180;28;20025;-82
2022/08/20 10:27:44;;;;;;;3.50;1.83;;;30.00;50.00;;;;;;5012693;28;20454;-81
2022/08/20 10:30:11;;;;;;;4.35;1.50;;;30.10;49.80;;;;;;5037177;28;20083;-80
2022/08/20 10:32:37;;;;;;;6.43;1.90;;;30.20;49.60;;;;;;5038711;28;20045;-85
2022/08/20 10:35:03;;;;;;;4.45;2.20;;;30.40;49.50;;;;;;5038734;28;20035;-84
2022/08/20 10:37:29;;;;;;;5.40;1.48;;;30.60;49.10;;;;;;5037573;28;20313;-85
2022/08/20 10:39:55;;;;;;;5.38;2.42;;;30.80;48.80;;;;;;5024157;28;20069;-83
2022/08/20 10:42:22;;;;;;;4.45;1.70;;;31.00;48.50;;;;;;5047988;28;20053;-85
2022/08/20 10:44:48;;;;;;;4.32;1.75;;;31.20;48.20;;;;;;5015383;28;20507;-83
2022/08/20 10:47:14;;;;;;;3.58;1.63;;;31.30;47.90;;;;;;5013155;28;20061;-85
2022/08/20 10:49:40;;;;;;;4.47;1.90;;;31.40;47.70;;;;;;5039059;28;20064;-81
2022/08/20 10:52:06;;;;;;;4.53;2.20;;;31.30;47.50;;;;;;5022271;28;20041;-84
2022/08/20 10:54:32;;;;;;;6.18;2.03;;;31.20;47.40;;;;;;5055000;28;20022;-83
2022/08/20 10:57:03;;;;;;;3.28;1.35;;;31.00;47.50;;;;;;5028750;28;20113;-85
2022/08/20 10:59:29;;;;;;;4.32;1.80;;;30.90;47.70;;;;;;5016887;28;20037;-86
2022/08/20 11:01:55;;;;;;;2.92;1.80;;;30.80;47.80;;;;;;5009783;28;20022;-85
2022/08/20 11:04:21;;;;;;;3.40;1.42;;;30.70;47.80;;;;;;5025360;28;20026;-83
2022/08/20 11:06:47;;;;;;;4.15;1.50;;;30.70;47.80;;;;;;5029583;28;20013;-84
2022/08/20 11:09:14;;;;;;;5.15;1.70;;;30.70;47.70;;;;;;5019986;28;20110;-84
2022/08/20 11:11:40;;;;;;;3.63;1.90;;;30.70;47.70;;;;;;5026579;28;20265;-84
2022/08/20 11:14:07;;;;;;;5.80;1.60;;;30.70;47.60;;;;;;5014730;28;20022;-88
2022/08/20 11:16:33;;;;;;;3.67;1.52;;;30.60;47.60;;;;;;5015360;28;20029;-84
2022/08/20 11:18:58;;;;;;;5.03;1.67;;;30.70;47.60;;;;;;5008148;28;20087;-85
2022/08/20 11:21:24;;;;;;;3.38;1.70;;;30.70;47.60;;;;;;4994497;28;20042;-84
2022/08/20 11:23:50;;;;;;;3.88;2.10;;;30.60;47.50;;;;;;4993933;28;20025;-88
2022/08/20 11:26:22;;;;;;;3.70;1.98;;;30.50;47.50;;;;;;5025111;28;20022;-86
2022/08/20 11:28:47;;;;;;;4.68;1.70;;;30.30;47.50;;;;;;5022846;28;20033;-83
2022/08/20 11:31:13;;;;;;;5.93;2.00;;;30.20;47.70;;;;;;5016308;28;20044;-85
2022/08/20 11:33:39;;;;;;;6.90;2.38;;;30.10;47.80;;;;;;5024996;28;20669;-82
2022/08/20 11:36:06;;;;;;;6.78;2.28;;;30.10;47.90;;;;;;5027923;28;20119;-79
2022/08/20 11:38:32;;;;;;;6.15;1.98;;;30.00;47.80;;;;;;5024960;28;20075;-81
2022/08/20 11:40:57;;;;;;;7.82;2.42;;;29.90;47.70;;;;;;5019347;28;20151;-91
2022/08/20 11:43:23;;;;;;;4.93;2.33;;;29.80;47.60;;;;;;5015213;28;20030;-90
2022/08/20 11:45:53;;;;;;;5.57;2.30;;;29.70;47.60;;;;;;5017985;28;20037;-91
2022/08/20 11:48:19;;;;;;;5.75;1.98;;;29.70;47.60;;;;;;5034181;28;20025;-91
2022/08/20 11:50:48;;;;;;;6.82;1.90;;;29.70;47.60;;;;;;4996865;28;20057;-90
2022/08/20 11:53:15;;;;;;;5.30;1.88;;;29.70;47.60;;;;;;5027990;28;20036;-91
2022/08/20 11:55:42;;;;;;;4.03;2.40;;;29.70;47.60;;;;;;5016002;28;20029;-92
2022/08/20 11:58:09;;;;;;;5.93;2.45;;;29.60;47.50;;;;;;5026422;28;20089;-92
2022/08/20 12:00:36;;;;;;;3.88;2.08;;;29.60;47.60;;;;;;5026542;28;20089;-87
2022/08/20 12:03:05;;;;;;;6.05;2.50;;;29.60;47.70;;;;;;5012744;28;20034;-93
2022/08/20 12:05:31;;;;;;;4.90;2.13;;;29.50;47.70;;;;;;5030515;28;20025;-91
2022/08/20 12:07:59;;;;;;;6.53;2.40;;;29.50;47.70;;;;;;5029890;28;20044;-94
2022/08/20 12:10:26;;;;;;;5.53;2.30;;;29.40;47.80;;;;;;5029940;28;20104;-93
2022/08/20 12:12:53;;;;;;;5.72;2.17;;;29.40;48.00;;;;;;5029335;28;20036;-91
2022/08/20 12:15:19;;;;;;;5.80;2.03;;;29.40;48.00;;;;;;5030748;28;20168;-92
2022/08/20 12:17:45;;;;;;;3.83;1.95;;;29.40;48.00;;;;;;5031486;28;20037;-90
2022/08/20 12:20:13;;;;;;;4.53;1.88;;;29.50;48.00;;;;;;5015478;28;20136;-90
2022/08/20 12:22:39;;;;;;;5.43;2.38;;;29.50;47.90;;;;;;5037776;28;20036;-89
2022/08/20 12:25:07;;;;;;;4.35;1.95;;;29.60;47.90;;;;;;5051114;28;20108;-92
2022/08/20 12:27:35;;;;;;;5.05;2.25;;;29.70;47.80;;;;;;5043050;28;20056;-91
2022/08/20 12:30:05;;;;;;;3.50;1.80;;;29.70;47.70;;;;;;5035168;28;20110;-96
2022/08/20 12:32:32;;;;;;;4.45;1.73;;;29.80;47.60;;;;;;5030783;28;20025;-93
2022/08/20 12:34:58;;;;;;;4.50;2.25;;;29.90;47.60;;;;;;5016908;28;20500;-82
2022/08/20 12:37:26;;;;;;;4.30;2.20;;;30.00;47.50;;;;;;5027996;28;20021;-82
2022/08/20 12:39:54;;;;;;;5.25;1.90;;;30.00;47.40;;;;;;5022380;28;20056;-85
2022/08/20 12:42:21;;;;;;;3.47;1.80;;;30.10;47.40;;;;;;5016687;28;20025;-84
2022/08/20 12:44:47;;;;;;;4.88;2.15;;;30.10;47.90;;;;;;5017583;28;20037;-94
2022/08/20 12:47:17;;;;;;;3.20;1.92;;;30.10;47.30;;;;;;5027827;28;20049;-94
2022/08/20 12:49:46;;;;;;;4.47;1.92;;;30.20;47.20;;;;;;5010656;28;20380;-94
2022/08/20 12:52:14;;;;;;;3.42;2.03;;;30.30;47.20;;;;;;4997100;28;20037;-94
2022/08/20 12:54:40;;;;;;;4.68;2.05;;;30.40;47.20;;;;;;5027510;28;20017;-84
2022/08/20 12:57:11;;;;;;;3.95;2.22;;;30.40;47.00;;;;;;5016304;28;20029;-87